Time;durP1;ratioP1;P1;durP2;ratioP2;P2;SDS_P1;SDS_P2;PMS_P1;PMS_P2;Temp;Humidity;BMP_temperature;BMP_pressure;BME280_temperature;BME280_humidity;BME280_pressure;Samples;Min_cycle;Max_cycle;Signal;HPM_P1;HPM_P2
2022/09/27 00:01:35;;;;;;;15.90;10.90;;;;;;;13.16;78.36;99128.84;103103;1281;96006;-60
2022/09/27 00:04:03;;;;;;;13.80;11.00;;;;;;;13.24;77.76;99127.66;103078;1281;109576;-60
2022/09/27 00:06:32;;;;;;;13.60;10.90;;;;;;;13.18;77.40;99128.35;103260;1281;99843;-61
2022/09/27 00:09:04;;;;;;;15.30;11.80;;;;;;;13.08;77.74;99128.75;103050;1281;108850;-60
2022/09/27 00:11:38;;;;;;;16.10;12.60;;;;;;;13.03;77.89;99128.52;103082;1281;95509;-61
2022/09/27 00:14:08;;;;;;;14.60;12.00;;;;;;;12.99;78.29;99123.00;103217;1281;95924;-61
2022/09/27 00:16:37;;;;;;;16.70;13.30;;;;;;;13.06;78.24;99118.52;103162;1281;108716;-60
2022/09/27 00:19:11;;;;;;;16.60;12.50;;;;;;;13.08;78.10;99114.68;102997;1282;99626;-61
2022/09/27 00:21:39;;;;;;;15.90;12.40;;;;;;;13.01;78.05;99109.18;103159;1281;108607;-60
2022/09/27 00:24:12;;;;;;;16.40;13.20;;;;;;;12.91;78.46;99107.98;103029;1281;95651;-60
2022/09/27 00:26:40;;;;;;;17.50;12.50;;;;;;;12.91;78.67;99100.34;103208;1281;95413;-62
2022/09/27 00:29:09;;;;;;;16.20;12.60;;;;;;;12.88;78.73;99107.41;103046;1281;109745;-61
2022/09/27 00:31:37;;;;;;;16.70;13.00;;;;;;;12.84;79.10;99107.31;103132;1281;99432;-59
2022/09/27 00:34:10;;;;;;;15.70;12.30;;;;;;;12.81;79.25;99108.56;103142;1281;109181;-60
2022/09/27 00:36:38;;;;;;;16.80;12.90;;;;;;;12.80;79.48;99106.98;103044;1281;95461;-58
2022/09/27 00:39:06;;;;;;;16.70;12.90;;;;;;;12.84;79.58;99099.85;103133;1281;95378;-60
2022/09/27 00:41:35;;;;;;;18.00;14.70;;;;;;;12.93;79.51;99098.08;103132;1281;109038;-62
2022/09/27 00:44:24;;;;;;;18.10;14.20;;;;;;;12.96;79.16;99092.23;103194;1281;99435;-63
2022/09/27 00:46:59;;;;;;;18.90;14.30;;;;;;;12.91;79.38;99090.38;103095;1281;108853;-62
2022/09/27 00:49:52;;;;;;;17.50;14.20;;;;;;;12.86;79.60;99089.55;103029;1281;96287;-59
2022/09/27 00:52:26;;;;;;;19.20;14.80;;;;;;;12.81;79.76;99085.17;102976;1283;95435;-61
2022/09/27 00:55:09;;;;;;;17.60;13.70;;;;;;;12.78;79.78;99080.91;103022;1281;109789;-61
2022/09/27 00:57:37;;;;;;;18.40;15.00;;;;;;;12.75;80.03;99080.60;103118;1281;99618;-60
2022/09/27 01:00:12;;;;;;;18.10;13.60;;;;;;;12.74;80.15;99077.95;103318;1281;108937;-70
2022/09/27 01:02:44;;;;;;;17.30;13.70;;;;;;;12.74;80.11;99073.27;103440;1281;95963;-60
2022/09/27 01:05:15;;;;;;;17.30;13.70;;;;;;;12.78;80.26;99075.42;103214;1281;96003;-59
2022/09/27 01:07:43;;;;;;;17.60;14.30;;;;;;;12.85;80.11;99074.97;103050;1281;109720;-58
2022/09/27 01:10:12;;;;;;;18.40;14.30;;;;;;;12.94;79.85;99080.04;103118;1281;99432;-61
2022/09/27 01:13:00;;;;;;;18.40;14.40;;;;;;;13.04;79.39;99079.25;103022;1281;109088;-62
2022/09/27 01:15:42;;;;;;;17.00;13.80;;;;;;;13.11;79.03;99082.28;102875;1282;95554;-60
2022/09/27 01:18:19;;;;;;;16.80;12.60;;;;;;;13.24;78.64;99076.67;103090;1281;96240;-59
2022/09/27 01:21:02;;;;;;;17.40;14.00;;;;;;;13.33;77.84;99078.66;103019;1281;109792;-61
2022/09/27 01:23:44;;;;;;;17.40;13.90;;;;;;;13.24;77.67;99076.73;103002;1281;99455;-61
2022/09/27 01:26:27;;;;;;;18.30;14.50;;;;;;;13.14;77.99;99072.12;102853;1284;108952;-61
2022/09/27 01:29:50;;;;;;;17.10;13.30;;;;;;;13.20;78.24;99076.77;102911;1284;95359;-60
2022/09/27 01:32:36;;;;;;;19.00;13.90;;;;;;;13.32;77.64;99078.00;102814;1282;95637;-63
2022/09/27 01:35:19;;;;;;;17.70;13.70;;;;;;;13.25;77.44;99077.34;102876;1283;109263;-60
2022/09/27 01:38:21;;;;;;;18.50;14.30;;;;;;;13.20;77.66;99072.80;102927;1284;99480;-61
2022/09/27 01:40:57;;;;;;;19.30;15.00;;;;;;;13.20;78.01;99071.58;102929;1282;108845;-61
2022/09/27 01:43:46;;;;;;;18.40;14.60;;;;;;;13.25;77.75;99064.52;103115;1281;97420;-57
2022/09/27 01:46:28;;;;;;;17.70;13.80;;;;;;;13.21;77.67;99061.02;102914;1283;95581;-59
2022/09/27 01:49:33;;;;;;;18.50;14.70;;;;;;;13.17;77.64;99063.73;102991;1281;109795;-61
2022/09/27 01:52:06;;;;;;;17.90;14.50;;;;;;;13.08;77.55;99060.52;103002;1281;99406;-60
2022/09/27 01:54:43;;;;;;;17.90;14.30;;;;;;;12.96;77.92;99060.30;103067;1281;108683;-61
2022/09/27 01:57:37;;;;;;;18.20;13.60;;;;;;;12.89;78.51;99057.14;102657;1281;96012;-61
2022/09/27 02:00:10;;;;;;;16.60;13.10;;;;;;;12.92;78.64;99057.30;103022;1282;95676;-60
2022/09/27 02:02:49;;;;;;;17.20;14.50;;;;;;;13.02;78.72;99052.12;102973;1281;110776;-60
2022/09/27 02:05:42;;;;;;;20.40;15.20;;;;;;;13.16;78.19;99050.59;102888;1284;99299;-61
2022/09/27 02:08:53;;;;;;;19.50;15.30;;;;;;;13.11;77.71;99046.77;102880;1284;108804;-61
2022/09/27 02:11:50;;;;;;;21.50;16.70;;;;;;;13.04;77.90;99049.52;102754;1281;95762;-60
2022/09/27 02:14:33;;;;;;;21.50;16.30;;;;;;;13.00;77.96;99046.52;103106;1281;95356;-60
2022/09/27 02:17:20;;;;;;;19.60;15.70;;;;;;;12.95;78.18;99043.46;103071;1281;109736;-59
2022/09/27 02:20:15;;;;;;;19.80;15.50;;;;;;;13.01;78.30;99040.96;102837;1283;98524;-61
2022/09/27 02:22:56;;;;;;;18.80;14.50;;;;;;;13.01;78.61;99038.80;103083;1281;106916;-60
2022/09/27 02:25:37;;;;;;;18.90;14.30;;;;;;;13.11;78.20;99033.95;102905;1284;95559;-61
2022/09/27 02:28:10;;;;;;;18.40;14.10;;;;;;;13.22;77.38;99030.10;102970;1284;96839;-60
2022/09/27 02:30:39;;;;;;;20.60;14.80;;;;;;;13.23;77.24;99027.02;102927;1284;109873;-60
2022/09/27 02:33:29;;;;;;;19.20;14.10;;;;;;;13.14;77.24;99024.88;103010;1281;99467;-61
2022/09/27 02:35:57;;;;;;;17.40;13.90;;;;;;;13.12;77.32;99025.14;102975;1281;108902;-61
2022/09/27 02:38:25;;;;;;;18.30;14.30;;;;;;;13.10;77.26;99029.42;102919;1284;95558;-60
2022/09/27 02:40:54;;;;;;;20.00;15.20;;;;;;;13.02;77.51;99027.02;103099;1284;95693;-68
2022/09/27 02:43:26;;;;;;;19.60;15.20;;;;;;;12.94;77.70;99028.16;103226;1281;109542;-65
2022/09/27 02:46:03;;;;;;;20.20;15.30;;;;;;;12.92;77.92;99026.90;103180;1281;98694;-68
2022/09/27 02:48:47;;;;;;;20.70;15.60;;;;;;;12.86;78.15;99028.65;102991;1281;108642;-69
2022/09/27 02:51:56;;;;;;;18.90;14.90;;;;;;;12.88;78.68;99029.58;103088;1281;95296;-69
2022/09/27 02:54:54;;;;;;;18.80;14.50;;;;;;;13.02;78.53;99021.27;103251;1281;95688;-69
2022/09/27 02:58:22;;;;;;;19.30;15.60;;;;;;;13.00;78.07;99020.52;103055;1281;108809;-67
2022/09/27 03:01:28;;;;;;;19.10;15.10;;;;;;;13.02;78.18;99021.63;102728;1281;98901;-68
2022/09/27 03:04:31;;;;;;;21.60;16.30;;;;;;;13.04;77.90;99026.71;103096;1281;108907;-69
2022/09/27 03:07:01;;;;;;;19.80;15.50;;;;;;;13.04;77.69;99022.05;103156;1281;96242;-68
2022/09/27 03:09:40;;;;;;;20.00;15.20;;;;;;;13.05;77.97;99021.83;103462;1281;95344;-69
2022/09/27 03:12:08;;;;;;;21.10;16.40;;;;;;;13.15;77.69;99019.67;102908;1281;109531;-71
2022/09/27 03:14:36;;;;;;;21.20;16.40;;;;;;;13.18;77.27;99020.89;102884;1282;99411;-70
2022/09/27 03:17:17;;;;;;;22.70;17.60;;;;;;;13.21;77.26;99016.98;102934;1282;109176;-68
2022/09/27 03:20:04;;;;;;;25.50;19.10;;;;;;;13.17;77.05;99021.46;103057;1281;96422;-71
2022/09/27 03:22:45;;;;;;;26.60;20.00;;;;;;;13.13;77.12;99023.29;103039;1281;96576;-68
2022/09/27 03:25:14;;;;;;;26.40;19.40;;;;;;;13.13;77.16;99019.19;103264;1281;108409;-68
2022/09/27 03:27:43;;;;;;;24.90;18.30;;;;;;;13.10;76.81;99015.47;103141;1281;98496;-70
2022/09/27 03:30:13;;;;;;;26.00;17.90;;;;;;;12.95;77.20;99013.17;103126;1281;108820;-66
2022/09/27 03:32:42;;;;;;;25.40;18.10;;;;;;;12.80;77.73;99008.29;103147;1281;96222;-69
2022/09/27 03:35:29;;;;;;;25.00;17.70;;;;;;;12.81;78.35;99005.73;103051;1281;95356;-69
2022/09/27 03:37:57;;;;;;;25.70;17.10;;;;;;;12.87;78.36;99001.86;102992;1281;109977;-67
2022/09/27 03:40:25;;;;;;;24.80;18.60;;;;;;;12.94;78.14;98998.42;103081;1281;99508;-70
2022/09/27 03:42:53;;;;;;;26.90;17.60;;;;;;;13.00;77.90;98998.29;102972;1280;108837;-66
2022/09/27 03:45:21;;;;;;;25.50;17.60;;;;;;;13.03;77.78;98997.36;102910;1281;96040;-69
2022/09/27 03:47:50;;;;;;;25.90;18.20;;;;;;;13.09;77.63;98999.14;102973;1282;95789;-68
2022/09/27 03:50:18;;;;;;;26.00;18.40;;;;;;;13.15;77.28;98992.17;103055;1281;109764;-69
2022/09/27 03:52:46;;;;;;;24.20;17.90;;;;;;;13.17;77.21;98988.71;103029;1281;99509;-67
2022/09/27 03:55:14;;;;;;;23.70;17.50;;;;;;;13.23;77.22;98987.09;103086;1281;108690;-69
2022/09/27 03:57:45;;;;;;;25.90;18.50;;;;;;;13.28;76.90;98985.77;102834;1282;96102;-70
2022/09/27 04:00:18;;;;;;;25.70;17.90;;;;;;;13.34;76.78;98983.40;103115;1281;96004;-67
2022/09/27 04:02:46;;;;;;;26.90;18.10;;;;;;;13.38;76.59;98982.11;102971;1283;110452;-67
2022/09/27 04:05:27;;;;;;;25.30;18.50;;;;;;;13.37;76.22;98982.36;103014;1281;99201;-65
2022/09/27 04:08:12;;;;;;;27.60;18.90;;;;;;;13.27;76.59;98980.27;102914;1283;108416;-69
2022/09/27 04:10:42;;;;;;;26.60;18.70;;;;;;;13.25;76.72;98978.08;103047;1282;96139;-67
2022/09/27 04:13:10;;;;;;;27.50;18.70;;;;;;;13.25;76.59;98979.89;102913;1281;95825;-67
2022/09/27 04:15:42;;;;;;;25.90;17.80;;;;;;;13.25;76.60;98972.16;103057;1281;109533;-70
2022/09/27 04:18:31;;;;;;;26.20;17.80;;;;;;;13.29;76.40;98975.13;103007;1281;98989;-68
2022/09/27 04:21:25;;;;;;;26.00;17.50;;;;;;;13.31;76.33;98971.42;102884;1281;107832;-68
2022/09/27 04:23:53;;;;;;;29.60;18.70;;;;;;;13.33;76.14;98967.59;102887;1284;95316;-68
2022/09/27 04:26:24;;;;;;;27.70;17.60;;;;;;;13.33;76.11;98969.41;103129;1281;96019;-64
2022/09/27 04:29:02;;;;;;;24.50;16.90;;;;;;;13.34;76.18;98969.84;103031;1281;109022;-69
2022/09/27 04:31:31;;;;;;;26.60;18.20;;;;;;;13.39;76.04;98966.38;102963;1281;99486;-69
2022/09/27 04:36:25;;;;;;;26.30;18.10;;;;;;;13.36;75.85;98966.02;103058;1281;109070;-65
2022/09/27 04:37:14;;;;;;;25.90;18.40;;;;;;;13.10;76.17;98966.98;102922;1282;95670;-69
2022/09/27 04:39:47;;;;;;;26.20;17.30;;;;;;;12.92;77.17;98968.80;103071;1281;95624;-69
2022/09/27 04:42:16;;;;;;;25.80;17.40;;;;;;;12.90;77.73;98972.10;103139;1281;109735;-69
2022/09/27 04:44:44;;;;;;;24.50;17.00;;;;;;;12.95;77.68;98972.73;103250;1282;99620;-69
2022/09/27 04:47:12;;;;;;;23.10;15.80;;;;;;;13.03;77.46;98979.90;102998;1282;109377;-68
2022/09/27 04:49:40;;;;;;;23.80;15.90;;;;;;;12.96;77.16;98984.61;102842;1282;95992;-69
2022/09/27 04:52:08;;;;;;;24.60;16.90;;;;;;;12.95;77.58;98985.04;102896;1282;95350;-69
2022/09/27 04:54:37;;;;;;;29.60;20.40;;;;;;;12.93;77.43;98981.77;103011;1282;107903;-71
2022/09/27 04:57:11;;;;;;;23.10;16.00;;;;;;;12.76;77.56;98975.39;103051;1281;98471;-66
2022/09/27 04:59:40;;;;;;;27.20;16.60;;;;;;;12.73;78.13;98973.83;103197;1281;108859;-70
2022/09/27 05:02:08;;;;;;;23.70;16.00;;;;;;;12.75;78.16;98976.38;102787;1283;95358;-72
2022/09/27 05:04:48;;;;;;;27.70;16.70;;;;;;;12.75;78.23;98975.30;102999;1281;95259;-68
2022/09/27 05:07:18;;;;;;;25.60;16.40;;;;;;;12.73;78.23;98971.86;102792;1284;109841;-70
2022/09/27 05:09:50;;;;;;;26.70;17.40;;;;;;;12.63;78.34;98975.11;102848;1282;98143;-71
2022/09/27 05:12:19;;;;;;;32.90;17.50;;;;;;;12.59;78.97;98976.08;102889;1282;108654;-69
2022/09/27 05:14:56;;;;;;;26.70;17.20;;;;;;;12.61;78.98;98973.09;103131;1281;95330;-73
2022/09/27 05:17:44;;;;;;;29.20;17.30;;;;;;;12.58;78.81;98967.20;103171;1281;95462;-71
2022/09/27 05:20:30;;;;;;;25.80;16.90;;;;;;;12.47;79.13;98966.93;103085;1281;109814;-70
2022/09/27 05:23:21;;;;;;;25.40;17.30;;;;;;;12.47;79.69;98963.93;103052;1281;99602;-71
2022/09/27 05:25:49;;;;;;;27.60;18.10;;;;;;;12.44;79.51;98959.81;103040;1282;108854;-66
2022/09/27 05:28:17;;;;;;;28.30;17.00;;;;;;;12.38;79.92;98954.23;103103;1281;95628;-72
2022/09/27 05:30:45;;;;;;;41.00;26.00;;;;;;;12.39;80.32;98956.15;102954;1281;95446;-70
2022/09/27 05:33:17;;;;;;;26.00;17.50;;;;;;;12.43;80.16;98959.86;103532;1281;109990;-69
2022/09/27 05:35:55;;;;;;;27.10;18.10;;;;;;;12.44;80.32;98956.06;103043;1281;99425;-70
2022/09/27 05:38:27;;;;;;;28.80;18.60;;;;;;;12.49;80.57;98953.62;103089;1282;109737;-72
2022/09/27 05:40:56;;;;;;;28.30;18.80;;;;;;;12.53;80.24;98957.16;103196;1281;96209;-71
2022/09/27 05:43:25;;;;;;;28.40;18.80;;;;;;;12.49;80.10;98955.95;103042;1282;95344;-72
2022/09/27 05:45:53;;;;;;;28.00;18.40;;;;;;;12.52;80.55;98963.82;103232;1281;109711;-68
2022/09/27 05:48:21;;;;;;;29.00;19.20;;;;;;;12.56;80.48;98973.70;103259;1281;100130;-72
2022/09/27 05:50:53;;;;;;;28.50;18.90;;;;;;;12.63;80.22;98976.89;103015;1281;107141;-70
2022/09/27 05:53:22;;;;;;;26.70;17.80;;;;;;;12.62;79.95;98972.81;102927;1281;95718;-72
2022/09/27 05:55:50;;;;;;;29.80;20.20;;;;;;;12.56;79.79;98969.80;102935;1281;96901;-68
2022/09/27 05:58:20;;;;;;;30.60;20.00;;;;;;;12.56;80.40;98970.34;105233;1281;110028;-70
2022/09/27 06:00:53;;;;;;;30.30;19.90;;;;;;;12.64;80.27;98972.91;102966;1281;99400;-70
2022/09/27 06:03:46;;;;;;;29.60;19.50;;;;;;;12.66;80.12;98973.15;102905;1281;109538;-67
2022/09/27 06:06:46;;;;;;;28.70;18.40;;;;;;;12.65;80.22;98968.59;102830;1281;96017;-71
2022/09/27 06:09:15;;;;;;;29.80;20.00;;;;;;;12.69;80.32;98972.27;103065;1281;95241;-71
2022/09/27 06:11:45;;;;;;;232.20;177.00;;;;;;;12.74;80.07;98966.11;103051;1281;109634;-71
2022/09/27 06:14:15;;;;;;;32.40;21.00;;;;;;;12.76;79.87;98961.91;102714;1282;99291;-69
2022/09/27 06:16:58;;;;;;;30.20;19.90;;;;;;;12.75;79.90;98956.26;103009;1281;108588;-69
2022/09/27 06:19:29;;;;;;;31.50;19.80;;;;;;;12.71;79.98;98954.70;102971;1282;95699;-69
2022/09/27 06:21:57;;;;;;;32.70;21.30;;;;;;;12.70;80.16;98958.50;103131;1281;95186;-71
2022/09/27 06:24:30;;;;;;;30.20;19.70;;;;;;;12.70;80.35;98958.85;103114;1281;109004;-72
2022/09/27 06:27:04;;;;;;;30.50;19.60;;;;;;;12.71;80.32;98960.38;102911;1282;97984;-69
2022/09/27 06:29:45;;;;;;;29.20;19.10;;;;;;;12.77;80.31;98958.82;102951;1281;109310;-72
2022/09/27 06:32:23;;;;;;;29.30;18.80;;;;;;;12.71;80.15;98957.52;102738;1282;96089;-68
2022/09/27 06:34:58;;;;;;;29.60;18.30;;;;;;;12.63;80.30;98955.52;103246;1281;95428;-70
2022/09/27 06:37:27;;;;;;;29.00;18.80;;;;;;;12.53;80.54;98948.79;102741;1282;109667;-69
2022/09/27 06:39:55;;;;;;;26.40;16.90;;;;;;;12.42;80.82;98943.04;103272;1281;99633;-71
2022/09/27 06:42:49;;;;;;;28.60;18.70;;;;;;;12.30;81.24;98936.23;102736;1281;107292;-69
2022/09/27 06:45:24;;;;;;;26.10;16.80;;;;;;;12.28;81.45;98932.05;103008;1282;95847;-70
2022/09/27 06:48:12;;;;;;;29.20;19.20;;;;;;;12.27;81.65;98935.70;103158;1281;95362;-69
2022/09/27 06:50:48;;;;;;;30.10;19.00;;;;;;;12.30;81.84;98941.19;103277;1281;110241;-68
2022/09/27 06:53:16;;;;;;;28.70;18.80;;;;;;;12.40;82.11;98954.14;103219;1281;99465;-69
2022/09/27 06:55:44;;;;;;;24.30;16.40;;;;;;;12.46;81.43;98963.07;103190;1281;108783;-71
2022/09/27 07:01:17;;;;;;;25.00;16.40;;;;;;;12.40;81.05;98974.11;103077;1281;95273;-71
2022/09/27 07:04:06;;;;;;;25.70;16.80;;;;;;;12.41;80.67;98977.24;102567;1281;109112;-70
2022/09/27 07:06:49;;;;;;;21.60;14.80;;;;;;;12.41;80.66;98980.83;102909;1281;99402;-69
2022/09/27 07:09:21;;;;;;;30.50;20.90;;;;;;;12.42;80.51;98983.96;102818;1282;109774;-69
2022/09/27 07:11:49;;;;;;;22.70;15.30;;;;;;;12.39;80.27;98983.05;102944;1281;96192;-69
2022/09/27 07:14:17;;;;;;;19.60;13.20;;;;;;;12.43;80.59;98974.64;102684;1281;95493;-69
2022/09/27 07:16:45;;;;;;;22.00;14.00;;;;;;;12.41;80.28;98976.02;103108;1281;110406;-70
2022/09/27 07:19:14;;;;;;;19.60;12.80;;;;;;;12.37;80.30;98976.90;102971;1285;99408;-68
2022/09/27 07:21:44;;;;;;;19.60;12.80;;;;;;;12.38;80.27;98983.66;103379;1281;108826;-71
2022/09/27 07:24:12;;;;;;;21.00;13.20;;;;;;;12.36;80.56;98986.09;102891;1282;95359;-69
2022/09/27 07:26:41;;;;;;;19.20;11.90;;;;;;;12.45;80.51;98982.91;103006;1281;95290;-71
2022/09/27 07:29:11;;;;;;;18.50;12.40;;;;;;;12.41;80.07;98988.66;102866;1282;109687;-68
2022/09/27 07:31:41;;;;;;;19.20;12.50;;;;;;;12.24;80.47;98988.69;102894;1281;99250;-67
2022/09/27 07:34:10;;;;;;;19.00;12.40;;;;;;;12.13;81.01;98985.56;102847;1281;110761;-67
2022/09/27 07:36:38;;;;;;;19.60;13.10;;;;;;;12.07;81.41;98986.13;103063;1282;96232;-70
2022/09/27 07:39:06;;;;;;;20.10;12.20;;;;;;;12.04;81.70;98986.04;103074;1281;95903;-70
2022/09/27 07:41:34;;;;;;;20.00;13.30;;;;;;;12.04;81.87;98979.80;103043;1281;109458;-70
2022/09/27 07:44:02;;;;;;;22.50;13.90;;;;;;;12.12;82.26;98969.09;102996;1281;99427;-69
2022/09/27 07:46:32;;;;;;;20.40;13.20;;;;;;;12.22;82.28;98962.10;103000;1281;109308;-69
2022/09/27 07:49:08;;;;;;;22.00;13.60;;;;;;;12.24;81.85;98962.40;102989;1281;95284;-68
2022/09/27 07:51:55;;;;;;;20.60;12.70;;;;;;;12.28;82.00;98958.39;103026;1281;96735;-70
2022/09/27 07:54:39;;;;;;;21.90;14.20;;;;;;;12.30;81.64;98961.16;103005;1281;109272;-70
2022/09/27 07:57:20;;;;;;;21.50;13.90;;;;;;;12.34;81.74;98968.17;103084;1281;99430;-66
2022/09/27 07:59:50;;;;;;;21.00;12.80;;;;;;;12.36;81.76;98971.61;103086;1281;108825;-68
2022/09/27 08:02:20;;;;;;;20.00;13.50;;;;;;;12.32;81.42;98978.66;103004;1281;95684;-69
2022/09/27 08:04:50;;;;;;;19.40;12.40;;;;;;;12.30;81.32;98979.46;102848;1281;95444;-66
2022/09/27 08:07:18;;;;;;;17.70;11.90;;;;;;;12.30;81.32;98979.81;103217;1281;109871;-70
2022/09/27 08:09:51;;;;;;;17.80;12.10;;;;;;;12.32;81.29;98974.38;103036;1281;97644;-71
2022/09/27 08:12:20;;;;;;;18.60;11.90;;;;;;;12.31;81.32;98972.48;102965;1281;108835;-70
2022/09/27 08:14:49;;;;;;;19.60;13.40;;;;;;;12.32;81.26;98976.15;102879;1282;95998;-68
2022/09/27 08:17:18;;;;;;;19.10;13.20;;;;;;;12.38;81.43;98979.71;102898;1281;95885;-67
2022/09/27 08:20:13;;;;;;;19.80;13.40;;;;;;;12.50;81.05;98984.41;102716;1281;109907;-69
2022/09/27 08:23:10;;;;;;;22.30;14.20;;;;;;;12.65;81.14;98986.60;102971;1281;99403;-70
2022/09/27 08:25:43;;;;;;;23.30;14.60;;;;;;;12.82;80.56;98989.82;103035;1281;108963;-65
2022/09/27 08:28:26;;;;;;;20.70;14.30;;;;;;;12.91;80.53;98985.92;102953;1281;96154;-67
2022/09/27 08:31:00;;;;;;;22.50;14.10;;;;;;;12.98;79.68;98986.45;102937;1281;97348;-68
2022/09/27 08:33:28;;;;;;;20.40;13.80;;;;;;;12.95;79.63;98986.95;102768;1280;110128;-69
2022/09/27 08:36:02;;;;;;;29.20;20.50;;;;;;;12.97;79.50;98986.51;102852;1281;98410;-68
2022/09/27 08:38:30;;;;;;;19.80;14.10;;;;;;;12.99;79.32;98983.31;102627;1282;109060;-69
2022/09/27 08:41:09;;;;;;;20.30;13.70;;;;;;;13.06;79.28;98985.22;103052;1282;96218;-69
2022/09/27 08:44:24;;;;;;;20.70;14.10;;;;;;;13.10;78.87;98987.13;102909;1281;96069;-67
2022/09/27 08:47:17;;;;;;;21.60;14.10;;;;;;;13.12;78.71;98984.58;102429;1288;110270;-69
2022/09/27 08:49:49;;;;;;;20.80;14.10;;;;;;;13.12;78.53;98987.77;103015;1281;98068;-66
2022/09/27 08:52:22;;;;;;;22.50;14.80;;;;;;;13.09;78.42;98985.40;102809;1281;108967;-68
2022/09/27 08:54:51;;;;;;;20.20;14.60;;;;;;;13.09;78.86;98987.75;103311;1281;95647;-68
2022/09/27 08:57:22;;;;;;;20.30;14.00;;;;;;;13.12;78.47;98993.26;103215;1281;95967;-67
2022/09/27 09:00:03;;;;;;;21.60;14.80;;;;;;;13.08;78.16;98993.49;104802;1282;108227;-69
2022/09/27 09:02:32;;;;;;;16.70;11.60;;;;;;;13.00;77.69;98989.33;103781;1282;99307;-69
2022/09/27 09:05:14;;;;;;;17.90;12.90;;;;;;;12.97;77.58;98985.42;103000;1281;108988;-68
2022/09/27 09:08:16;;;;;;;16.00;12.20;;;;;;;13.01;77.82;98983.23;102891;1282;95296;-69
2022/09/27 09:14:20;;;;;;;18.10;12.80;;;;;;;12.99;77.85;98976.78;102973;1282;108790;-70
2022/09/27 09:17:13;;;;;;;20.30;15.10;;;;;;;12.99;77.90;98970.51;102908;1281;98107;-68
2022/09/27 09:20:11;;;;;;;19.60;14.90;;;;;;;13.06;78.42;98971.02;103133;1281;108839;-70
2022/09/27 09:23:25;;;;;;;18.40;13.80;;;;;;;13.14;78.05;98962.71;102731;1282;95888;-68
2022/09/27 09:26:14;;;;;;;17.10;12.50;;;;;;;13.19;77.80;98961.65;102960;1282;95541;-67
2022/09/27 09:28:53;;;;;;;17.20;13.50;;;;;;;13.20;77.14;98961.08;103033;1281;109897;-67
2022/09/27 09:31:37;;;;;;;19.00;15.20;;;;;;;13.19;77.61;98957.04;103128;1281;98228;-70
2022/09/27 09:34:10;;;;;;;17.40;13.30;;;;;;;13.21;77.46;98957.79;103058;1281;109199;-68
2022/09/27 09:36:45;;;;;;;19.90;15.60;;;;;;;13.19;77.51;98960.05;102874;1282;96316;-68
2022/09/27 09:39:19;;;;;;;20.00;15.60;;;;;;;13.20;77.78;98961.60;103172;1281;95640;-68
2022/09/27 09:42:09;;;;;;;21.30;16.40;;;;;;;13.20;77.97;98962.14;103225;1281;109974;-68
2022/09/27 09:44:47;;;;;;;22.00;16.60;;;;;;;13.18;77.99;98960.14;103046;1281;99534;-68
2022/09/27 09:47:36;;;;;;;21.50;16.70;;;;;;;13.17;78.39;98958.20;103148;1282;108771;-71
2022/09/27 09:50:15;;;;;;;21.20;15.70;;;;;;;13.24;78.38;98962.59;103027;1281;96113;-66
2022/09/27 09:52:49;;;;;;;22.10;16.70;;;;;;;13.25;78.11;98958.27;102752;1282;95851;-67
2022/09/27 09:55:23;;;;;;;21.60;16.30;;;;;;;13.28;78.23;98957.75;103135;1281;110477;-68
2022/09/27 09:58:12;;;;;;;23.50;17.80;;;;;;;13.25;78.06;98957.73;102817;1282;99499;-67
2022/09/27 10:00:50;;;;;;;20.50;15.10;;;;;;;13.30;78.18;98960.83;103161;1281;109163;-67
2022/09/27 10:03:19;;;;;;;22.30;17.10;;;;;;;13.27;78.27;98950.16;102840;1282;95449;-67
2022/09/27 10:05:47;;;;;;;20.40;15.30;;;;;;;13.30;78.39;98946.75;103370;1281;95690;-68
2022/09/27 10:08:21;;;;;;;22.80;17.30;;;;;;;13.31;78.12;98940.09;102859;1281;109456;-67
2022/09/27 10:10:55;;;;;;;23.30;17.40;;;;;;;13.33;78.48;98938.56;103043;1281;99733;-67
2022/09/27 10:13:47;;;;;;;22.70;16.90;;;;;;;13.31;78.13;98933.15;102963;1281;108921;-67
2022/09/27 10:16:19;;;;;;;23.00;16.90;;;;;;;13.31;78.73;98934.70;102743;1282;95798;-67
2022/09/27 10:18:50;;;;;;;25.10;19.00;;;;;;;13.34;78.55;98933.64;102966;1282;96756;-67
2022/09/27 10:21:24;;;;;;;25.20;17.60;;;;;;;13.38;78.43;98933.42;103271;1281;109720;-68
2022/09/27 10:24:11;;;;;;;23.40;17.70;;;;;;;13.35;78.46;98931.99;103040;1281;97589;-67
2022/09/27 10:27:11;;;;;;;25.50;18.70;;;;;;;13.39;78.49;98936.44;103010;1281;108913;-68
2022/09/27 10:29:39;;;;;;;24.10;17.20;;;;;;;13.43;78.25;98936.77;102895;1282;95256;-69
2022/09/27 10:32:37;;;;;;;23.50;16.90;;;;;;;13.41;78.05;98936.30;103054;1281;96035;-67
2022/09/27 10:35:29;;;;;;;22.60;17.30;;;;;;;13.39;78.19;98934.09;102763;1281;110028;-67
2022/09/27 10:38:31;;;;;;;22.90;17.10;;;;;;;13.43;78.13;98935.48;102906;1282;99324;-67
2022/09/27 10:41:25;;;;;;;24.80;18.10;;;;;;;13.47;78.04;98933.42;102824;1282;108968;-69
2022/09/27 10:44:25;;;;;;;22.80;17.40;;;;;;;13.48;77.98;98929.28;102747;1282;95789;-67
2022/09/27 10:47:09;;;;;;;21.50;16.00;;;;;;;13.42;77.71;98925.90;102965;1282;96075;-66
2022/09/27 10:49:51;;;;;;;24.00;17.50;;;;;;;13.32;77.78;98923.80;103146;1281;109924;-67
2022/09/27 10:52:33;;;;;;;25.20;18.80;;;;;;;13.26;78.15;98918.48;103041;1281;98021;-67
2022/09/27 10:55:17;;;;;;;25.90;19.50;;;;;;;13.25;78.16;98915.50;102821;1282;109030;-66
2022/09/27 10:57:51;;;;;;;24.90;19.10;;;;;;;13.31;78.46;98917.29;102933;1284;96243;-67
2022/09/27 11:00:22;;;;;;;26.20;19.40;;;;;;;13.35;78.21;98910.98;102732;1282;96265;-67
2022/09/27 11:02:58;;;;;;;23.90;18.60;;;;;;;13.42;78.31;98911.10;103100;1281;109992;-68
2022/09/27 11:05:33;;;;;;;22.80;17.40;;;;;;;13.47;77.79;98905.98;102919;1281;99844;-68
2022/09/27 11:08:23;;;;;;;23.50;17.30;;;;;;;13.50;77.28;98903.11;102810;1282;108798;-68
2022/09/27 11:11:22;;;;;;;24.60;19.20;;;;;;;13.52;77.39;98902.98;102816;1282;95440;-68
2022/09/27 11:14:06;;;;;;;24.30;19.10;;;;;;;13.60;77.45;98896.83;103310;1281;95318;-67
2022/09/27 11:17:08;;;;;;;21.90;17.10;;;;;;;13.63;76.78;98898.75;102995;1281;109765;-69
2022/09/27 11:19:57;;;;;;;23.20;18.20;;;;;;;13.61;76.50;98896.56;102741;1282;99595;-68
2022/09/27 11:23:09;;;;;;;21.80;16.60;;;;;;;13.61;76.45;98891.05;102749;1282;109310;-66
2022/09/27 11:26:06;;;;;;;19.90;15.40;;;;;;;13.62;76.48;98888.11;102820;1282;95816;-66
2022/09/27 11:28:46;;;;;;;20.60;16.40;;;;;;;13.69;76.49;98885.91;102749;1282;96000;-67
2022/09/27 11:31:42;;;;;;;24.90;18.10;;;;;;;13.81;76.36;98879.75;103003;1281;109587;-69
2022/09/27 11:34:18;;;;;;;20.80;16.80;;;;;;;13.91;76.11;98870.77;103202;1282;99459;-66
2022/09/27 11:37:14;;;;;;;18.10;14.90;;;;;;;14.10;76.13;98866.27;102987;1282;108832;-67
2022/09/27 11:40:04;;;;;;;19.30;15.90;;;;;;;14.31;74.40;98867.64;103259;1281;96922;-66
2022/09/27 11:42:54;;;;;;;20.80;16.00;;;;;;;14.48;73.40;98867.75;103001;1281;95355;-68
2022/09/27 11:45:46;;;;;;;18.60;14.60;;;;;;;14.72;73.55;98863.64;102884;1282;110633;-66
2022/09/27 11:49:09;;;;;;;16.80;14.00;;;;;;;14.92;72.16;98859.09;102935;1281;99192;-66
2022/09/27 11:52:01;;;;;;;14.60;11.60;;;;;;;14.95;70.39;98859.09;102899;1282;108957;-69
2022/09/27 11:54:53;;;;;;;16.20;13.30;;;;;;;14.88;70.50;98859.51;102752;1282;95346;-67
2022/09/27 11:57:30;;;;;;;18.60;15.50;;;;;;;14.90;71.10;98855.64;103129;1281;96130;-66
2022/09/27 12:00:17;;;;;;;17.80;14.40;;;;;;;14.95;71.73;98856.74;102889;1284;109391;-65
2022/09/27 12:02:52;;;;;;;33.00;24.50;;;;;;;14.99;71.16;98859.52;103109;1282;99479;-67
2022/09/27 12:05:37;;;;;;;16.00;14.00;;;;;;;15.02;69.96;98856.59;102859;1284;108655;-66